createdAt,value
2023-09-30T00:00:06.705Z,63.43
2023-09-30T00:02:59.199Z,63.45
2023-09-30T00:05:29.243Z,63.35
2023-09-30T00:07:57.820Z,63.61
2023-09-30T00:10:26.305Z,63.55
2023-09-30T00:12:54.786Z,63.72
2023-09-30T00:15:23.706Z,63.72
2023-09-30T00:17:52.400Z,63.78
2023-09-30T00:20:20.994Z,63.75
2023-09-30T00:22:49.522Z,63.85
2023-09-30T00:25:18.005Z,63.83
2023-09-30T00:27:46.605Z,64.04
2023-09-30T00:30:15.806Z,64.21
2023-09-30T00:32:45.059Z,64.24
2023-09-30T00:35:14.254Z,64.19
2023-09-30T00:37:43.637Z,64.04
2023-09-30T00:40:15.504Z,63.94
2023-09-30T00:42:44.082Z,64.05
2023-09-30T00:45:13.629Z,64.25
2023-09-30T00:47:42.424Z,64.15
2023-09-30T00:50:13.590Z,64.04
2023-09-30T00:52:42.462Z,64.09
2023-09-30T00:55:12.219Z,64.08
2023-09-30T00:57:41.687Z,64.19
2023-09-30T01:00:13.635Z,64.09
2023-09-30T01:02:43.044Z,64.59
2023-09-30T01:05:11.766Z,64.63
2023-09-30T01:07:40.764Z,64.54
2023-09-30T01:10:09.906Z,64.54
2023-09-30T01:12:38.679Z,64.69
2023-09-30T01:15:08.562Z,64.55
2023-09-30T01:17:38.097Z,64.47
2023-09-30T01:20:08.267Z,64.36
2023-09-30T01:22:36.959Z,64.42
2023-09-30T01:25:05.913Z,64.62
2023-09-30T01:27:36.203Z,64.33
2023-09-30T01:30:05.366Z,64.56
2023-09-30T01:32:34.692Z,64.55
2023-09-30T01:35:03.768Z,64.71
2023-09-30T01:37:32.294Z,64.81
2023-09-30T01:40:01.097Z,64.39
2023-09-30T01:42:31.052Z,64.54
2023-09-30T01:44:59.508Z,64.69
2023-09-30T01:47:28.927Z,64.94
2023-09-30T01:49:57.401Z,64.82
2023-09-30T01:52:25.947Z,64.95
2023-09-30T01:54:55.631Z,65.12
2023-09-30T01:57:24.263Z,64.93
2023-09-30T01:59:53.279Z,65.28
2023-09-30T02:02:21.930Z,65.30
2023-09-30T02:04:51.566Z,65.18
2023-09-30T02:07:20.140Z,65.34
2023-09-30T02:09:48.813Z,65.37
2023-09-30T02:12:17.672Z,65.31
2023-09-30T02:14:47.942Z,65.62
2023-09-30T02:17:16.377Z,65.71
2023-09-30T02:19:45.513Z,65.78
2023-09-30T02:22:14.066Z,65.66
2023-09-30T02:24:42.764Z,65.77
2023-09-30T02:27:11.247Z,65.77
2023-09-30T02:29:39.790Z,65.82
2023-09-30T02:32:08.729Z,65.83
2023-09-30T02:34:37.205Z,65.88
2023-09-30T02:37:05.789Z,65.55
2023-09-30T02:39:34.361Z,65.63
2023-09-30T02:42:03.012Z,65.67
2023-09-30T02:44:31.597Z,65.66
2023-09-30T02:47:00.178Z,65.83
2023-09-30T02:49:29.015Z,65.69
2023-09-30T02:51:57.706Z,65.72
2023-09-30T02:54:26.189Z,65.60
2023-09-30T02:56:56.255Z,65.78
2023-09-30T02:59:24.878Z,65.84
2023-09-30T03:01:53.597Z,66.04
2023-09-30T03:04:27.383Z,65.78
2023-09-30T03:06:57.681Z,65.64
2023-09-30T03:09:27.473Z,65.60
2023-09-30T03:12:00.598Z,65.77
2023-09-30T03:14:32.350Z,65.80
2023-09-30T03:17:00.999Z,65.82
2023-09-30T03:19:29.568Z,65.70
2023-09-30T03:21:58.147Z,66.04
2023-09-30T03:24:28.444Z,65.94
2023-09-30T03:26:56.946Z,66.11
2023-09-30T03:29:25.425Z,66.44
2023-09-30T03:31:53.968Z,66.51
2023-09-30T03:34:22.600Z,65.99
2023-09-30T03:36:51.740Z,66.26
2023-09-30T03:39:28.151Z,66.06
2023-09-30T03:41:59.188Z,66.44
2023-09-30T03:44:27.870Z,66.52
2023-09-30T03:46:56.585Z,66.52
2023-09-30T03:49:25.090Z,66.35
2023-09-30T03:51:55.004Z,66.37
2023-09-30T03:54:24.350Z,66.63
2023-09-30T03:56:52.829Z,66.64
2023-09-30T03:59:21.627Z,66.82
2023-09-30T04:01:50.415Z,66.55
2023-09-30T04:04:19.577Z,66.56
2023-09-30T04:06:48.926Z,66.61
2023-09-30T04:09:17.608Z,66.65
2023-09-30T04:11:46.226Z,66.85
2023-09-30T04:14:14.713Z,67.05
2023-09-30T04:16:43.567Z,66.82
2023-09-30T04:19:12.237Z,66.68
2023-09-30T04:21:40.827Z,66.76
2023-09-30T04:24:10.600Z,66.72
2023-09-30T04:26:39.665Z,66.78
2023-09-30T04:29:11.837Z,66.79
2023-09-30T04:31:40.748Z,66.79
2023-09-30T04:34:09.370Z,66.67
2023-09-30T04:36:38.068Z,66.78
2023-09-30T04:39:06.806Z,66.80
2023-09-30T04:41:35.313Z,66.83
2023-09-30T04:44:05.323Z,66.40
2023-09-30T04:46:35.252Z,66.81
2023-09-30T04:49:03.765Z,66.62
2023-09-30T04:51:34.563Z,66.48
2023-09-30T04:54:04.979Z,66.64
2023-09-30T04:56:33.613Z,66.41
2023-09-30T04:59:02.552Z,66.15
2023-09-30T05:01:31.008Z,66.39
2023-09-30T05:04:00.974Z,66.22
2023-09-30T05:06:29.951Z,66.33
2023-09-30T05:08:58.519Z,66.28
2023-09-30T05:11:27.713Z,65.93
2023-09-30T05:13:56.518Z,66.22
2023-09-30T05:16:26.899Z,65.76
2023-09-30T05:18:55.899Z,65.81
2023-09-30T05:21:24.468Z,65.58
2023-09-30T05:23:52.989Z,65.58
2023-09-30T05:26:21.469Z,65.20
2023-09-30T05:28:50.204Z,65.20
2023-09-30T05:31:18.901Z,65.26
2023-09-30T05:33:47.658Z,65.21
2023-09-30T05:36:16.384Z,64.99
2023-09-30T05:38:44.992Z,64.61
2023-09-30T05:41:15.516Z,64.33
2023-09-30T05:43:44.921Z,64.06
2023-09-30T05:46:14.497Z,63.69
2023-09-30T05:48:43.813Z,63.46
2023-09-30T05:51:16.308Z,63.06
2023-09-30T05:53:44.790Z,63.06
2023-09-30T05:56:13.358Z,62.65
2023-09-30T05:58:43.016Z,62.38
2023-09-30T06:01:12.327Z,62.17
2023-09-30T06:03:41.328Z,61.89
2023-09-30T06:06:17.393Z,61.46
2023-09-30T06:08:46.720Z,60.85
2023-09-30T06:11:31.640Z,60.76
2023-09-30T06:14:03.502Z,60.27
2023-09-30T06:16:33.108Z,59.80
2023-09-30T06:19:01.848Z,59.68
2023-09-30T06:21:30.953Z,59.23
2023-09-30T06:23:59.531Z,58.63
2023-09-30T06:26:30.338Z,58.33
2023-09-30T06:28:59.765Z,58.10
2023-09-30T06:31:29.868Z,57.44
2023-09-30T06:33:59.887Z,56.81
2023-09-30T06:36:28.846Z,56.42
2023-09-30T06:38:57.516Z,56.43
2023-09-30T06:41:26.907Z,55.99
2023-09-30T06:43:55.387Z,55.00
2023-09-30T06:46:25.379Z,54.93
2023-09-30T06:48:54.279Z,54.21
2023-09-30T06:51:23.040Z,53.81
2023-09-30T06:53:51.622Z,53.44
2023-09-30T06:56:20.196Z,53.06
2023-09-30T06:58:48.676Z,51.98
2023-09-30T07:01:20.415Z,51.38
2023-09-30T07:03:49.063Z,50.83
2023-09-30T07:06:25.395Z,50.64
2023-09-30T07:08:54.374Z,50.29
2023-09-30T07:11:30.585Z,49.58
2023-09-30T07:13:59.276Z,48.93
2023-09-30T07:16:27.864Z,48.74
2023-09-30T07:18:56.926Z,48.17
2023-09-30T07:21:26.292Z,47.44
2023-09-30T07:23:54.876Z,46.77
2023-09-30T07:26:27.144Z,46.85
2023-09-30T07:28:57.927Z,45.99
2023-09-30T07:31:27.299Z,44.96
2023-09-30T07:33:56.038Z,44.50
2023-09-30T07:36:24.916Z,42.62
2023-09-30T07:38:54.377Z,42.34
2023-09-30T07:41:22.891Z,40.49
2023-09-30T07:43:51.679Z,41.18
2023-09-30T07:46:21.066Z,40.48
2023-09-30T07:48:49.690Z,40.34
2023-09-30T07:51:18.507Z,42.29
2023-09-30T07:53:47.031Z,41.68
2023-09-30T07:56:16.280Z,41.89
2023-09-30T07:58:44.880Z,42.38
2023-09-30T08:01:13.706Z,42.46
2023-09-30T08:03:42.841Z,41.38
2023-09-30T08:06:11.398Z,39.72
2023-09-30T08:08:40.466Z,38.94
2023-09-30T08:11:09.279Z,39.19
2023-09-30T08:13:38.102Z,40.26
2023-09-30T08:16:06.660Z,39.58
2023-09-30T08:18:35.156Z,38.27
2023-09-30T08:21:03.750Z,40.04
2023-09-30T08:23:32.495Z,39.29
2023-09-30T08:26:01.018Z,38.71
2023-09-30T08:28:29.463Z,38.90
2023-09-30T08:31:03.630Z,38.66
2023-09-30T08:33:32.619Z,38.99
2023-09-30T08:36:09.786Z,39.66
2023-09-30T08:38:42.317Z,39.33
2023-09-30T08:41:12.114Z,38.63
2023-09-30T08:43:41.713Z,37.68
2023-09-30T08:46:11.097Z,38.55
2023-09-30T08:48:39.771Z,38.38
2023-09-30T08:51:09.780Z,38.05
2023-09-30T08:53:38.980Z,38.25
2023-09-30T08:56:11.762Z,38.63
2023-09-30T08:58:40.659Z,39.27
2023-09-30T09:01:11.428Z,39.50
2023-09-30T09:03:40.629Z,40.88
2023-09-30T09:06:09.549Z,40.81
2023-09-30T09:08:39.434Z,40.32
2023-09-30T09:11:08.173Z,38.93
2023-09-30T09:13:52.174Z,39.94
2023-09-30T09:16:20.837Z,38.60
2023-09-30T09:18:49.916Z,38.07
2023-09-30T09:21:22.217Z,38.39
2023-09-30T09:23:53.304Z,38.56
2023-09-30T09:26:33.155Z,38.95
2023-09-30T09:29:04.134Z,36.83
2023-09-30T09:31:35.945Z,36.35
2023-09-30T09:34:14.455Z,36.50
2023-09-30T09:36:50.004Z,35.16
2023-09-30T09:39:32.174Z,35.13
2023-09-30T09:42:02.822Z,36.27
2023-09-30T09:44:32.636Z,33.00
2023-09-30T09:47:04.978Z,32.80
2023-09-30T09:49:34.202Z,33.39
2023-09-30T09:52:03.484Z,32.61
2023-09-30T09:54:33.802Z,32.83
2023-09-30T09:57:04.866Z,31.86
2023-09-30T09:59:33.965Z,31.92
2023-09-30T10:02:08.433Z,33.04
2023-09-30T10:04:39.060Z,32.08
2023-09-30T10:07:12.278Z,31.62
2023-09-30T10:09:46.840Z,31.64
2023-09-30T10:12:17.458Z,32.34
2023-09-30T10:14:46.149Z,33.12
2023-09-30T10:17:14.815Z,32.09
2023-09-30T10:20:28.215Z,32.40
2023-09-30T10:23:27.086Z,32.62
2023-09-30T10:26:15.049Z,32.25
2023-09-30T10:28:50.628Z,30.37
2023-09-30T10:31:22.115Z,30.52
2023-09-30T10:34:03.049Z,32.19
2023-09-30T10:36:32.850Z,30.46
2023-09-30T10:39:02.522Z,30.42
2023-09-30T10:41:46.532Z,30.21
2023-09-30T10:44:28.150Z,30.76
2023-09-30T10:47:01.784Z,31.02
2023-09-30T10:49:30.390Z,30.34
2023-09-30T10:52:03.379Z,30.02
2023-09-30T10:54:34.589Z,29.77
2023-09-30T10:57:05.143Z,30.07
2023-09-30T10:59:36.800Z,30.96
2023-09-30T11:02:20.815Z,30.98
2023-09-30T11:04:49.839Z,30.31
2023-09-30T11:07:27.847Z,31.44
2023-09-30T11:09:57.360Z,31.01
2023-09-30T11:12:27.037Z,30.54
2023-09-30T11:15:04.102Z,30.44
2023-09-30T11:17:32.839Z,29.22
2023-09-30T11:20:01.712Z,29.15
2023-09-30T11:22:30.349Z,27.95
2023-09-30T11:24:58.962Z,28.34
2023-09-30T11:27:28.638Z,29.03
2023-09-30T11:29:57.589Z,28.75
2023-09-30T11:32:30.872Z,29.03
2023-09-30T11:34:59.665Z,28.32
2023-09-30T11:37:35.164Z,28.61
2023-09-30T11:40:11.879Z,28.95
2023-09-30T11:42:41.163Z,28.76
2023-09-30T11:45:24.204Z,26.61
2023-09-30T11:47:53.450Z,27.95
2023-09-30T11:50:22.181Z,27.14
2023-09-30T11:52:50.708Z,27.20
2023-09-30T11:55:21.813Z,26.39
2023-09-30T11:57:51.922Z,27.00
2023-09-30T12:00:20.653Z,26.61
2023-09-30T12:02:49.269Z,26.80
2023-09-30T12:05:18.228Z,26.34
2023-09-30T12:07:48.655Z,26.99
2023-09-30T12:10:17.293Z,28.23
2023-09-30T12:12:46.206Z,28.13
2023-09-30T12:15:15.075Z,28.08
2023-09-30T12:17:43.533Z,27.42
2023-09-30T12:20:12.432Z,26.14
2023-09-30T12:22:41.023Z,26.50
2023-09-30T12:25:09.875Z,26.81
2023-09-30T12:27:41.157Z,27.34
2023-09-30T12:30:10.113Z,27.05
2023-09-30T12:32:41.161Z,26.00
2023-09-30T12:35:09.991Z,26.90
2023-09-30T12:37:39.944Z,25.60
2023-09-30T12:40:09.403Z,25.34
2023-09-30T12:42:38.156Z,26.37
2023-09-30T12:45:07.372Z,26.35
2023-09-30T12:47:35.926Z,26.18
2023-09-30T12:50:04.749Z,26.24
2023-09-30T12:52:34.210Z,25.86
2023-09-30T12:55:03.685Z,25.07
2023-09-30T12:57:33.251Z,25.71
2023-09-30T13:00:01.797Z,25.96
2023-09-30T13:02:30.455Z,26.00
2023-09-30T13:04:59.149Z,26.16
2023-09-30T13:07:27.892Z,26.58
2023-09-30T13:09:58.356Z,26.48
2023-09-30T13:12:27.841Z,26.92
2023-09-30T13:14:57.387Z,26.71
2023-09-30T13:17:26.652Z,27.59
2023-09-30T13:19:56.388Z,27.42
2023-09-30T13:22:25.457Z,28.30
2023-09-30T13:24:54.204Z,28.21
2023-09-30T13:27:23.322Z,28.06
2023-09-30T13:29:55.996Z,26.83
2023-09-30T13:32:24.397Z,27.63
2023-09-30T13:34:53.675Z,28.39
2023-09-30T13:37:22.363Z,27.49
2023-09-30T13:39:51.584Z,28.20
2023-09-30T13:42:20.444Z,27.70
